createdAt,value
2022-10-06T00:00:00.594Z,98502.41
2022-10-06T00:02:28.444Z,98497.53
2022-10-06T00:04:55.602Z,98499.19
2022-10-06T00:07:22.695Z,98501.34
2022-10-06T00:09:49.912Z,98513.50
2022-10-06T00:12:18.427Z,98514.56
2022-10-06T00:14:45.511Z,98518.34
2022-10-06T00:17:12.612Z,98515.13
2022-10-06T00:19:39.715Z,98515.69
2022-10-06T00:22:06.813Z,98513.25
2022-10-06T00:24:33.929Z,98511.34
2022-10-06T00:27:01.531Z,98512.97
2022-10-06T00:29:29.950Z,98510.25
2022-10-06T00:31:57.066Z,98514.31
2022-10-06T00:34:24.230Z,98523.22
2022-10-06T00:36:51.334Z,98513.22
2022-10-06T00:39:18.477Z,98513.75
2022-10-06T00:41:45.578Z,98524.84
2022-10-06T00:44:12.669Z,98519.69
2022-10-06T00:46:44.798Z,98513.50
2022-10-06T00:49:17.913Z,98514.81
2022-10-06T00:51:51.596Z,98516.72
2022-10-06T00:54:19.686Z,98518.31
2022-10-06T00:56:47.391Z,98521.28
2022-10-06T00:59:17.960Z,98522.66
2022-10-06T01:01:53.862Z,98522.09
2022-10-06T01:04:23.577Z,98527.50
2022-10-06T01:06:52.517Z,98522.69
2022-10-06T01:09:20.991Z,98533.19
2022-10-06T01:11:52.133Z,98532.09
2022-10-06T01:14:21.418Z,98534.25
2022-10-06T01:16:56.024Z,98526.69
2022-10-06T01:19:37.168Z,98535.09
2022-10-06T01:22:06.945Z,98541.81
2022-10-06T01:24:35.933Z,98540.75
2022-10-06T01:27:05.867Z,98546.16
2022-10-06T01:29:34.004Z,98549.91
2022-10-06T01:32:01.544Z,98545.88
2022-10-06T01:34:28.730Z,98548.56
2022-10-06T01:36:55.851Z,98546.38
2022-10-06T01:39:22.937Z,98552.06
2022-10-06T01:41:51.400Z,98549.38
2022-10-06T01:44:18.525Z,98549.63
2022-10-06T01:46:45.717Z,98544.16
2022-10-06T01:49:12.862Z,98550.13
2022-10-06T01:51:39.954Z,98555.25
2022-10-06T01:54:07.053Z,98551.75
2022-10-06T01:56:34.173Z,98546.88
2022-10-06T01:59:02.664Z,98546.13
2022-10-06T02:01:29.815Z,98549.06
2022-10-06T02:03:57.040Z,98551.53
2022-10-06T02:06:24.520Z,98555.81
2022-10-06T02:08:51.628Z,98555.03
2022-10-06T02:11:18.720Z,98554.78
2022-10-06T02:13:46.018Z,98563.66
2022-10-06T02:16:14.643Z,98560.97
2022-10-06T02:18:41.794Z,98559.06
2022-10-06T02:21:14.344Z,98567.44
2022-10-06T02:23:41.532Z,98572.25
2022-10-06T02:26:08.642Z,98573.59
2022-10-06T02:28:35.880Z,98576.84
2022-10-06T02:31:04.007Z,98569.25
2022-10-06T02:33:33.347Z,98580.34
2022-10-06T02:36:00.698Z,98579.00
2022-10-06T02:38:29.598Z,98583.84
2022-10-06T02:40:56.952Z,98586.78
2022-10-06T02:43:24.208Z,98583.00
2022-10-06T02:45:54.657Z,98583.84
2022-10-06T02:48:22.216Z,98591.69
2022-10-06T02:50:57.596Z,98589.50
2022-10-06T02:53:25.688Z,98586.56
2022-10-06T02:55:57.956Z,98600.06
2022-10-06T02:58:25.329Z,98604.34
2022-10-06T03:00:52.700Z,98593.00
2022-10-06T03:03:19.824Z,98600.31
2022-10-06T03:05:46.933Z,98607.34
2022-10-06T03:08:15.366Z,98608.16
2022-10-06T03:10:42.616Z,98610.03
2022-10-06T03:13:09.698Z,98610.03
2022-10-06T03:15:36.781Z,98602.47
2022-10-06T03:18:03.906Z,98624.31
2022-10-06T03:20:30.986Z,98622.69
2022-10-06T03:22:58.068Z,98629.97
2022-10-06T03:25:26.521Z,98637.00
2022-10-06T03:27:53.613Z,98632.41
2022-10-06T03:30:20.728Z,98636.72
2022-10-06T03:32:47.871Z,98642.66
2022-10-06T03:35:15.074Z,98640.44
2022-10-06T03:37:42.278Z,98643.47
2022-10-06T03:40:10.280Z,98639.16
2022-10-06T03:42:38.752Z,98642.66
2022-10-06T03:45:06.734Z,98664.00
2022-10-06T03:47:33.862Z,98660.50
2022-10-06T03:50:00.940Z,98664.25
2022-10-06T03:52:28.025Z,98668.31
2022-10-06T03:54:55.116Z,98673.69
2022-10-06T03:57:22.215Z,98668.59
2022-10-06T03:59:50.882Z,98671.53
2022-10-06T04:02:18.067Z,98673.13
2022-10-06T04:04:45.248Z,98675.84
2022-10-06T04:07:12.349Z,98668.78
2022-10-06T04:09:39.535Z,98683.94
2022-10-06T04:12:06.729Z,98688.78
2022-10-06T04:14:33.919Z,98689.59
2022-10-06T04:17:02.516Z,98691.22
2022-10-06T04:19:29.611Z,98690.94
2022-10-06T04:21:56.712Z,98696.63
2022-10-06T04:24:23.828Z,98701.22
2022-10-06T04:26:50.936Z,98698.28
2022-10-06T04:29:18.380Z,98697.19
2022-10-06T04:31:45.540Z,98691.78
2022-10-06T04:34:14.089Z,98695.03
2022-10-06T04:36:42.762Z,98695.78
2022-10-06T04:39:11.132Z,98709.84
2022-10-06T04:41:40.368Z,98702.81
2022-10-06T04:44:07.900Z,98702.28
2022-10-06T04:46:44.057Z,98699.34
2022-10-06T04:49:18.647Z,98712.84
2022-10-06T04:51:49.043Z,98702.03
2022-10-06T04:54:16.351Z,98716.34
2022-10-06T04:56:43.459Z,98710.94
2022-10-06T04:59:10.574Z,98711.78
2022-10-06T05:01:38.033Z,98719.03
2022-10-06T05:04:05.552Z,98722.81
2022-10-06T05:06:34.370Z,98714.69
2022-10-06T05:09:05.190Z,98724.44
2022-10-06T05:11:32.390Z,98736.88
2022-10-06T05:14:00.146Z,98740.63
2022-10-06T05:16:29.962Z,98744.41
2022-10-06T05:18:57.158Z,98742.53
2022-10-06T05:21:26.592Z,98754.66
2022-10-06T05:23:53.688Z,98764.66
2022-10-06T05:26:24.030Z,98760.88
2022-10-06T05:28:51.279Z,98766.25
2022-10-06T05:31:20.375Z,98761.41
2022-10-06T05:33:48.109Z,98775.44
2022-10-06T05:36:17.211Z,98773.56
2022-10-06T05:38:45.146Z,98767.91
2022-10-06T05:41:14.499Z,98774.09
2022-10-06T05:43:43.283Z,98775.72
2022-10-06T05:46:12.538Z,98781.97
2022-10-06T05:48:39.757Z,98780.06
2022-10-06T05:51:09.438Z,98785.22
2022-10-06T05:53:37.031Z,98785.47
2022-10-06T05:56:06.173Z,98778.41
2022-10-06T05:58:34.423Z,98789.28
2022-10-06T06:01:11.425Z,98786.00
2022-10-06T06:03:39.492Z,98790.63
2022-10-06T06:06:16.049Z,98801.91
2022-10-06T06:08:43.508Z,98798.97
2022-10-06T06:11:11.189Z,98800.03
2022-10-06T06:13:38.440Z,98800.25
2022-10-06T06:16:07.507Z,98804.72
2022-10-06T06:18:37.625Z,98815.75
2022-10-06T06:21:06.690Z,98813.75
2022-10-06T06:23:36.002Z,98813.59
2022-10-06T06:26:06.211Z,98823.41
2022-10-06T06:28:34.552Z,98821.56
2022-10-06T06:31:03.659Z,98818.53
2022-10-06T06:33:31.234Z,98836.38
2022-10-06T06:35:59.895Z,98840.94
2022-10-06T06:38:27.413Z,98849.28
2022-10-06T06:40:55.046Z,98850.91
2022-10-06T06:43:22.152Z,98868.03
2022-10-06T06:45:49.346Z,98865.91
2022-10-06T06:48:16.784Z,98862.13
2022-10-06T06:50:44.188Z,98859.75
2022-10-06T06:53:16.236Z,98875.66
2022-10-06T06:55:49.816Z,98877.03
2022-10-06T06:58:17.809Z,98879.50
2022-10-06T07:00:45.316Z,98878.16
2022-10-06T07:03:14.191Z,98888.91
2022-10-06T07:05:41.398Z,98880.25
2022-10-06T07:08:08.595Z,98890.47
2022-10-06T07:10:37.401Z,98895.59
2022-10-06T07:13:04.895Z,98902.63
2022-10-06T07:15:32.044Z,98904.56
2022-10-06T07:18:03.173Z,98907.25
2022-10-06T07:20:30.301Z,98905.97
2022-10-06T07:22:57.454Z,98914.34
2022-10-06T07:25:26.912Z,98904.88
2022-10-06T07:27:55.617Z,98911.16
2022-10-06T07:30:25.348Z,98911.25
2022-10-06T07:32:54.362Z,98911.25
2022-10-06T07:35:22.803Z,98923.31
2022-10-06T07:37:50.959Z,98908.22
2022-10-06T07:40:18.064Z,98923.06
2022-10-06T07:42:45.424Z,98923.88
2022-10-06T07:45:15.307Z,98926.84
2022-10-06T07:47:42.409Z,98921.16
2022-10-06T07:50:09.697Z,98932.72
2022-10-06T07:52:36.786Z,98921.72
2022-10-06T07:55:04.606Z,98929.28
2022-10-06T07:57:31.718Z,98927.34
2022-10-06T08:00:02.907Z,98922.19
2022-10-06T08:02:34.837Z,98924.66
2022-10-06T08:05:03.823Z,98936.81
2022-10-06T08:07:31.091Z,98936.06
2022-10-06T08:09:58.224Z,98937.69
2022-10-06T08:12:25.333Z,98941.16
2022-10-06T08:14:52.731Z,98942.19
2022-10-06T08:17:20.036Z,98940.38
2022-10-06T08:19:48.528Z,98953.75
2022-10-06T08:22:15.594Z,98962.16
2022-10-06T08:25:04.716Z,98950.34
2022-10-06T08:27:30.321Z,98953.94
2022-10-06T08:29:58.129Z,98954.25
2022-10-06T08:32:25.389Z,98949.97
2022-10-06T08:34:54.066Z,98961.34
2022-10-06T08:37:21.394Z,98955.38
2022-10-06T08:39:48.479Z,98959.94
2022-10-06T08:42:22.003Z,98958.06
2022-10-06T08:44:54.622Z,98960.69
2022-10-06T08:47:23.326Z,98962.06
2022-10-06T08:49:52.648Z,98965.59
2022-10-06T08:52:44.321Z,98961.03
2022-10-06T08:55:24.818Z,98961.38
2022-10-06T08:58:04.426Z,98959.31
2022-10-06T09:00:32.032Z,98962.09
2022-10-06T09:03:00.308Z,98957.50
2022-10-06T09:05:28.160Z,98961.00
2022-10-06T09:08:10.374Z,98958.88
2022-10-06T09:10:43.849Z,98961.31
2022-10-06T09:13:21.068Z,98961.06
2022-10-06T09:15:53.435Z,98964.56
2022-10-06T09:18:29.147Z,98956.47
2022-10-06T09:21:04.099Z,98965.94
2022-10-06T09:23:34.089Z,98954.34
2022-10-06T09:26:01.950Z,98965.44
2022-10-06T09:28:29.924Z,98966.53
2022-10-06T09:31:00.680Z,98959.50
2022-10-06T09:33:37.003Z,98962.44
2022-10-06T09:36:06.950Z,98973.47
2022-10-06T09:38:48.524Z,98963.06
2022-10-06T09:41:16.303Z,98964.50
2022-10-06T09:43:52.527Z,98951.66
2022-10-06T09:46:23.542Z,98952.78
2022-10-06T09:49:06.420Z,98961.94
2022-10-06T09:51:33.609Z,98958.16
2022-10-06T09:54:09.801Z,98963.28
2022-10-06T09:56:40.505Z,98956.59
2022-10-06T09:59:19.740Z,98965.50
2022-10-06T10:01:51.678Z,98964.44
2022-10-06T10:04:23.831Z,98963.34
2022-10-06T10:06:51.110Z,98964.16
2022-10-06T10:09:26.567Z,98963.91
2022-10-06T10:12:12.112Z,98962.88
2022-10-06T10:14:39.264Z,98962.16
2022-10-06T10:17:16.691Z,98954.91
2022-10-06T10:19:43.871Z,98942.53
2022-10-06T10:22:20.727Z,98958.78
2022-10-06T10:24:59.141Z,98955.31
2022-10-06T10:27:32.542Z,98953.63
2022-10-06T10:30:07.320Z,98967.41
2022-10-06T10:32:47.666Z,98966.34
2022-10-06T10:35:23.112Z,98976.91
2022-10-06T10:37:53.645Z,98969.91
2022-10-06T10:40:32.011Z,98976.94
2022-10-06T10:43:07.945Z,98978.88
2022-10-06T10:45:39.737Z,98976.13
2022-10-06T10:48:15.382Z,98975.88
2022-10-06T10:50:50.080Z,98975.06
2022-10-06T10:53:22.139Z,98968.25
2022-10-06T10:55:52.720Z,98971.25
2022-10-06T10:58:26.542Z,98974.75
2022-10-06T11:00:59.943Z,98983.09
2022-10-06T11:03:27.087Z,98976.66
2022-10-06T11:06:11.453Z,98983.09
2022-10-06T11:08:41.482Z,98979.84
2022-10-06T11:11:16.403Z,98979.91
2022-10-06T11:13:47.152Z,98983.09
2022-10-06T11:16:24.428Z,98979.03
2022-10-06T11:19:14.483Z,98968.31
2022-10-06T11:21:49.740Z,98973.22
2022-10-06T11:24:25.158Z,98979.72
2022-10-06T11:27:09.396Z,98977.53
2022-10-06T11:29:47.425Z,98988.66
2022-10-06T11:32:25.218Z,98986.50
2022-10-06T11:34:53.168Z,98983.00
2022-10-06T11:37:33.947Z,98981.34
2022-10-06T11:40:17.586Z,98975.38
2022-10-06T11:42:51.723Z,98975.38
2022-10-06T11:45:28.750Z,98978.09
2022-10-06T11:48:18.593Z,98972.94
2022-10-06T11:50:45.688Z,98972.13
2022-10-06T11:53:37.607Z,98976.78
2022-10-06T11:56:23.438Z,98968.13
2022-10-06T11:59:13.132Z,98971.66
2022-10-06T12:02:00.458Z,98971.16
2022-10-06T12:04:28.298Z,98965.78
2022-10-06T12:06:59.721Z,98963.81
2022-10-06T12:09:30.105Z,98965.50
2022-10-06T12:11:59.228Z,98969.31
2022-10-06T12:16:32.494Z,98976.09
2022-10-06T12:17:32.194Z,98967.22
2022-10-06T12:20:11.632Z,98960.97
2022-10-06T12:22:44.488Z,98959.91
2022-10-06T12:25:20.291Z,98959.44
2022-10-06T12:28:03.723Z,98953.22
2022-10-06T12:30:47.544Z,98959.97
2022-10-06T12:33:18.459Z,98959.97
2022-10-06T12:35:46.192Z,98961.84
2022-10-06T12:38:43.977Z,98961.06
2022-10-06T12:41:12.192Z,98952.66
2022-10-06T12:43:57.061Z,98956.16
2022-10-06T12:46:34.497Z,98951.00
2022-10-06T12:49:25.413Z,98951.84
2022-10-06T12:51:57.709Z,98946.69
2022-10-06T12:54:35.442Z,98956.97
2022-10-06T12:57:14.958Z,98957.53
2022-10-06T12:59:42.437Z,98958.38
2022-10-06T13:02:17.362Z,98963.53
2022-10-06T13:04:47.907Z,98955.97
2022-10-06T13:07:17.720Z,98951.38
2022-10-06T13:09:46.087Z,98955.47
2022-10-06T13:12:32.025Z,98953.09
2022-10-06T13:15:17.748Z,98943.94
2022-10-06T13:17:49.276Z,98946.63
2022-10-06T13:20:22.979Z,98945.84
2022-10-06T13:22:58.433Z,98941.56
2022-10-06T13:25:31.046Z,98952.63
2022-10-06T13:27:58.232Z,98938.28
2022-10-06T13:30:25.586Z,98945.06
2022-10-06T13:32:55.178Z,98941.28
2022-10-06T13:35:25.482Z,98941.00
2022-10-06T13:37:54.087Z,98949.72
2022-10-06T13:40:45.436Z,98944.84
2022-10-06T13:43:18.448Z,98939.97
2022-10-06T13:45:47.637Z,98941.63
2022-10-06T13:48:20.153Z,98941.38
2022-10-06T13:50:50.007Z,98942.75
2022-10-06T13:53:29.276Z,98944.13
2022-10-06T13:55:57.420Z,98944.13
2022-10-06T13:58:26.540Z,98942.50
2022-10-06T14:00:55.745Z,98943.34
2022-10-06T14:03:27.003Z,98946.06
2022-10-06T14:06:08.913Z,98949.31
2022-10-06T14:08:36.952Z,98942.81
2022-10-06T14:11:06.875Z,98949.03
2022-10-06T14:13:42.416Z,98943.34
2022-10-06T14:16:18.140Z,98944.44
2022-10-06T14:18:53.540Z,98943.91
2022-10-06T14:21:32.188Z,98936.09
2022-10-06T14:23:59.866Z,98937.69
2022-10-06T14:26:29.168Z,98936.63
2022-10-06T14:28:57.233Z,98936.13
2022-10-06T14:31:26.543Z,98940.22
2022-10-06T14:33:56.228Z,98932.34
2022-10-06T14:36:25.552Z,98932.63
2022-10-06T14:38:53.374Z,98932.63
2022-10-06T14:41:22.259Z,98935.06
2022-10-06T14:43:51.573Z,98934.25
2022-10-06T14:46:18.935Z,98933.19
2022-10-06T14:48:46.781Z,98933.72
2022-10-06T14:51:15.264Z,98938.03
2022-10-06T14:53:42.397Z,98932.34
2022-10-06T14:56:12.008Z,98932.91
2022-10-06T14:58:39.873Z,98930.19
2022-10-06T15:01:08.398Z,98921.81
2022-10-06T15:03:36.317Z,98928.84
2022-10-06T15:06:04.934Z,98919.63
2022-10-06T15:08:33.390Z,98922.06
2022-10-06T15:11:00.480Z,98921.81
2022-10-06T15:13:27.568Z,98918.28
2022-10-06T15:15:58.575Z,98917.72
2022-10-06T15:18:25.677Z,98915.28
2022-10-06T15:20:52.770Z,98917.47
2022-10-06T15:23:19.978Z,98914.72
2022-10-06T15:25:54.425Z,98920.13
2022-10-06T15:28:23.629Z,98920.13
2022-10-06T15:30:51.068Z,98915.78
2022-10-06T15:33:18.252Z,98926.91
2022-10-06T15:35:58.201Z,98921.47
2022-10-06T15:38:25.292Z,98919.31
2022-10-06T15:41:02.539Z,98927.16
2022-10-06T15:43:31.442Z,98922.56
2022-10-06T15:45:58.537Z,98923.34
2022-10-06T15:48:25.760Z,98921.44
2022-10-06T15:50:52.858Z,98915.22
2022-10-06T15:53:19.942Z,98928.22
2022-10-06T15:55:47.041Z,98927.41
2022-10-06T15:58:15.504Z,98927.94
2022-10-06T16:00:42.595Z,98930.91
2022-10-06T16:03:09.759Z,98927.91
2022-10-06T16:05:36.873Z,98933.63
2022-10-06T16:08:03.981Z,98937.94
2022-10-06T16:10:31.086Z,98933.84
2022-10-06T16:12:58.186Z,98935.19
2022-10-06T16:15:26.639Z,98933.03
2022-10-06T16:17:53.811Z,98931.09
2022-10-06T16:20:20.905Z,98941.38
2022-10-06T16:22:48.015Z,98939.22
2022-10-06T16:25:15.353Z,98942.75
2022-10-06T16:27:42.469Z,98935.69
2022-10-06T16:30:10.184Z,98943.00
2022-10-06T16:32:38.845Z,98942.19
2022-10-06T16:35:07.141Z,98948.94
2022-10-06T16:37:34.268Z,98945.44
2022-10-06T16:40:01.408Z,98946.47
2022-10-06T16:42:28.527Z,98947.56
2022-10-06T16:44:55.640Z,98951.34
2022-10-06T16:47:22.762Z,98955.13
2022-10-06T16:49:51.338Z,98960.22
2022-10-06T16:52:18.474Z,98955.09
2022-10-06T16:54:45.845Z,98956.09
2022-10-06T16:57:12.939Z,98946.59
2022-10-06T16:59:44.427Z,98951.63
2022-10-06T17:02:14.090Z,98959.63
2022-10-06T17:04:41.306Z,98951.13
2022-10-06T17:07:09.816Z,98960.72
2022-10-06T17:09:36.933Z,98956.03
2022-10-06T17:12:04.368Z,98964.13
2022-10-06T17:14:32.472Z,98957.84
2022-10-06T17:17:00.321Z,98955.63
2022-10-06T17:19:28.976Z,98961.53
2022-10-06T17:21:59.556Z,98957.47
2022-10-06T17:24:29.379Z,98963.34
2022-10-06T17:26:57.824Z,98959.84
2022-10-06T17:29:25.907Z,98958.56
2022-10-06T17:31:53.824Z,98955.63
2022-10-06T17:34:22.879Z,98948.38
2022-10-06T17:36:52.215Z,98966.50
2022-10-06T17:39:21.001Z,98960.03
2022-10-06T17:41:51.205Z,98970.03
2022-10-06T17:44:20.238Z,98977.06
2022-10-06T17:46:47.343Z,98968.44
2022-10-06T17:49:15.928Z,98973.09
2022-10-06T17:51:44.649Z,98966.59
2022-10-06T17:54:13.432Z,98970.88
2022-10-06T17:56:40.534Z,98974.91
2022-10-06T17:59:13.152Z,98968.44
2022-10-06T18:01:41.404Z,98974.91
2022-10-06T18:04:08.509Z,98964.13
2022-10-06T18:06:35.972Z,98962.53
2022-10-06T18:09:03.708Z,98959.81
2022-10-06T18:11:31.012Z,98966.56
2022-10-06T18:13:59.007Z,98967.69
2022-10-06T18:16:29.833Z,98963.09
2022-10-06T18:18:58.641Z,98961.19
2022-10-06T18:21:25.739Z,98957.44
2022-10-06T18:23:52.924Z,98965.28
2022-10-06T18:26:20.798Z,98958.50
2022-10-06T18:28:49.429Z,98963.63
2022-10-06T18:31:18.427Z,98964.69
2022-10-06T18:36:34.756Z,98960.88
2022-10-06T18:39:01.869Z,98961.16
2022-10-06T18:41:29.335Z,98961.16
2022-10-06T18:43:56.873Z,98958.72
2022-10-06T18:46:24.652Z,98965.69
2022-10-06T18:48:53.193Z,98965.72
2022-10-06T18:51:20.555Z,98971.41
2022-10-06T18:53:47.662Z,98970.06
2022-10-06T18:56:15.128Z,98975.78
2022-10-06T18:58:43.038Z,98980.31
2022-10-06T19:01:11.799Z,98976.22
2022-10-06T19:03:39.255Z,98975.16
2022-10-06T19:06:08.309Z,98976.53
2022-10-06T19:08:35.418Z,98971.97
2022-10-06T19:11:04.106Z,98964.13
2022-10-06T19:13:31.215Z,98975.22
2022-10-06T19:15:58.329Z,98974.38
2022-10-06T19:18:32.289Z,98979.00
2022-10-06T19:20:59.404Z,98972.78
2022-10-06T19:23:27.853Z,98971.97
2022-10-06T19:25:57.271Z,98975.47
2022-10-06T19:28:24.436Z,98980.88
2022-10-06T19:30:57.402Z,98977.63
2022-10-06T19:33:24.593Z,98975.72
2022-10-06T19:35:51.861Z,98976.22
2022-10-06T19:38:18.965Z,98973.53
2022-10-06T19:40:47.527Z,98967.00
2022-10-06T19:43:14.892Z,98974.31
2022-10-06T19:45:42.288Z,98970.81
2022-10-06T19:48:10.153Z,98976.75
2022-10-06T19:50:37.641Z,98984.06
2022-10-06T19:53:04.895Z,98980.81
2022-10-06T19:55:32.476Z,98975.47
2022-10-06T19:58:01.259Z,98979.00
2022-10-06T20:00:28.462Z,98980.06
2022-10-06T20:02:55.795Z,98975.22
2022-10-06T20:05:22.901Z,98981.44
2022-10-06T20:07:49.985Z,98984.13
2022-10-06T20:10:17.216Z,98975.47
2022-10-06T20:12:44.366Z,98979.78
2022-10-06T20:15:12.960Z,98973.03
2022-10-06T20:17:40.164Z,98970.06
2022-10-06T20:20:07.761Z,98970.06
2022-10-06T20:22:34.865Z,98969.53
2022-10-06T20:25:02.091Z,98966.00
2022-10-06T20:27:29.228Z,98978.13
2022-10-06T20:29:56.332Z,98968.66
2022-10-06T20:32:24.839Z,98967.28
2022-10-06T20:34:52.026Z,98964.00
2022-10-06T20:37:19.105Z,98967.84
2022-10-06T20:39:46.225Z,98967.31
2022-10-06T20:42:15.344Z,98970.03
2022-10-06T20:44:43.216Z,98964.88
2022-10-06T20:47:10.915Z,98970.03
2022-10-06T20:49:39.354Z,98961.09
2022-10-06T20:52:06.499Z,98960.59
2022-10-06T20:54:33.594Z,98960.06
2022-10-06T20:57:02.764Z,98961.66
2022-10-06T20:59:30.621Z,98956.81
2022-10-06T21:01:57.908Z,98957.59
2022-10-06T21:04:25.617Z,98954.38
2022-10-06T21:06:54.359Z,98958.19
2022-10-06T21:09:22.062Z,98956.25
2022-10-06T21:11:49.291Z,98958.41
2022-10-06T21:14:16.550Z,98951.91
2022-10-06T21:16:46.318Z,98951.09
2022-10-06T21:19:14.980Z,98953.50
2022-10-06T21:21:43.512Z,98951.09
2022-10-06T21:24:12.165Z,98950.31
2022-10-06T21:26:39.723Z,98948.09
2022-10-06T21:29:06.922Z,98949.50
2022-10-06T21:31:34.248Z,98948.66
2022-10-06T21:34:01.646Z,98947.84
2022-10-06T21:36:29.868Z,98946.78
2022-10-06T21:38:58.939Z,98939.81
2022-10-06T21:41:30.903Z,98943.31
2022-10-06T21:43:59.814Z,98940.34
2022-10-06T21:46:30.638Z,98941.72
2022-10-06T21:48:59.568Z,98941.16
2022-10-06T21:51:28.164Z,98929.25
2022-10-06T21:53:56.418Z,98933.84
2022-10-06T21:56:24.283Z,98932.19
2022-10-06T21:58:54.573Z,98929.81
2022-10-06T22:01:24.306Z,98929.50
2022-10-06T22:03:51.610Z,98933.28
2022-10-06T22:06:19.994Z,98931.41
2022-10-06T22:08:47.247Z,98925.38
2022-10-06T22:11:17.244Z,98923.47
2022-10-06T22:13:46.559Z,98922.19
2022-10-06T22:16:16.915Z,98919.16
2022-10-06T22:18:44.545Z,98923.47
2022-10-06T22:21:14.280Z,98912.69
2022-10-06T22:23:42.917Z,98918.38
2022-10-06T22:26:11.706Z,98915.38
2022-10-06T22:28:39.239Z,98918.91
2022-10-06T22:31:08.641Z,98920.28
2022-10-06T22:33:39.356Z,98907.03
2022-10-06T22:36:06.683Z,98918.66
2022-10-06T22:38:34.387Z,98912.41
2022-10-06T22:41:02.471Z,98909.44
2022-10-06T22:43:30.140Z,98902.41
2022-10-06T22:45:57.465Z,98907.81
2022-10-06T22:48:25.501Z,98898.63
2022-10-06T22:50:54.331Z,98902.41
2022-10-06T22:53:24.284Z,98894.56
2022-10-06T22:55:52.395Z,98886.47
2022-10-06T22:58:19.638Z,98890.25
2022-10-06T23:00:46.963Z,98898.03
2022-10-06T23:03:14.335Z,98879.94
2022-10-06T23:05:41.567Z,98875.09
2022-10-06T23:08:10.131Z,98872.41
2022-10-06T23:10:37.384Z,98871.03
2022-10-06T23:13:04.594Z,98868.34
2022-10-06T23:15:31.801Z,98870.25
2022-10-06T23:17:59.056Z,98861.59
2022-10-06T23:20:26.264Z,98862.41
2022-10-06T23:22:54.889Z,98864.28
2022-10-06T23:25:27.145Z,98865.41
2022-10-06T23:27:54.620Z,98868.63
2022-10-06T23:30:21.852Z,98862.69
2022-10-06T23:32:49.094Z,98862.94
2022-10-06T23:35:16.380Z,98861.34
2022-10-06T23:37:43.833Z,98870.19
2022-10-06T23:40:11.259Z,98878.06
2022-10-06T23:42:39.850Z,98867.50
2022-10-06T23:45:08.017Z,98872.91
2022-10-06T23:47:35.238Z,98867.47
2022-10-06T23:50:02.436Z,98863.19
2022-10-06T23:52:29.641Z,98862.31
2022-10-06T23:54:56.885Z,98856.69
2022-10-06T23:57:24.212Z,98858.56
2022-10-06T23:59:52.826Z,98860.19
